createdAt,value
2022-10-12T00:00:15.647Z,43.00
2022-10-12T00:00:47.057Z,43.03
2022-10-12T00:01:18.439Z,43.14
2022-10-12T00:01:49.867Z,43.15
2022-10-12T00:02:21.343Z,43.18
2022-10-12T00:02:52.772Z,43.00
2022-10-12T00:03:24.170Z,43.31
2022-10-12T00:03:55.560Z,43.03
2022-10-12T00:04:26.996Z,43.63
2022-10-12T00:04:58.390Z,43.25
2022-10-12T00:05:29.904Z,43.02
2022-10-12T00:06:01.308Z,42.92
2022-10-12T00:06:32.694Z,43.29
2022-10-12T00:07:04.095Z,43.28
2022-10-12T00:07:35.702Z,43.35
2022-10-12T00:08:07.273Z,43.75
2022-10-12T00:08:38.662Z,43.12
2022-10-12T00:09:10.065Z,43.13
2022-10-12T00:09:41.467Z,43.57
2022-10-12T00:10:12.850Z,43.68
2022-10-12T00:10:44.393Z,43.16
2022-10-12T00:11:15.776Z,43.09
2022-10-12T00:11:47.176Z,43.17
2022-10-12T00:12:18.568Z,43.15
2022-10-12T00:12:49.956Z,43.13
2022-10-12T00:13:21.347Z,43.15
2022-10-12T00:13:52.764Z,43.14
2022-10-12T00:14:24.177Z,42.81
2022-10-12T00:14:55.568Z,43.13
2022-10-12T00:15:26.981Z,43.02
2022-10-12T00:15:58.435Z,43.20
2022-10-12T00:20:51.901Z,43.42
2022-10-12T00:21:23.293Z,43.28
2022-10-12T00:21:54.693Z,43.65
2022-10-12T00:22:26.089Z,43.34
2022-10-12T00:22:57.484Z,42.96
2022-10-12T00:23:28.871Z,43.45
2022-10-12T00:24:00.257Z,43.15
2022-10-12T00:24:31.643Z,43.22
2022-10-12T00:25:03.033Z,42.89
2022-10-12T00:25:34.604Z,43.17
2022-10-12T00:26:05.999Z,43.31
2022-10-12T00:26:37.399Z,42.99
2022-10-12T00:27:08.786Z,43.37
2022-10-12T00:27:40.376Z,43.50
2022-10-12T00:28:11.841Z,43.31
2022-10-12T00:28:43.345Z,43.25
2022-10-12T00:29:14.766Z,43.63
2022-10-12T00:29:46.160Z,43.24
2022-10-12T00:30:17.540Z,42.99
2022-10-12T00:30:49.084Z,43.44
2022-10-12T00:31:20.473Z,43.32
2022-10-12T00:31:51.875Z,43.67
2022-10-12T00:32:23.280Z,43.38
2022-10-12T00:32:54.665Z,43.24
2022-10-12T00:33:26.062Z,43.18
2022-10-12T00:34:00.103Z,43.47
2022-10-12T00:34:31.514Z,43.24
2022-10-12T00:35:02.925Z,43.10
2022-10-12T00:35:34.313Z,42.87
2022-10-12T00:36:05.807Z,43.19
2022-10-12T00:36:37.215Z,43.26
2022-10-12T00:37:08.601Z,43.23
2022-10-12T00:37:40.266Z,43.23
2022-10-12T00:38:11.803Z,43.18
2022-10-12T00:38:43.187Z,43.37
2022-10-12T00:39:14.593Z,43.31
2022-10-12T00:39:45.980Z,43.30
2022-10-12T00:40:17.367Z,43.35
2022-10-12T00:40:48.764Z,43.24
2022-10-12T00:41:20.266Z,43.25
2022-10-12T00:41:51.648Z,43.34
2022-10-12T00:42:23.048Z,43.44
2022-10-12T00:42:54.433Z,43.35
2022-10-12T00:43:25.818Z,42.95
2022-10-12T00:43:58.754Z,43.33
2022-10-12T00:44:30.328Z,42.95
2022-10-12T00:45:01.708Z,43.52
2022-10-12T00:45:33.100Z,43.61
2022-10-12T00:46:04.505Z,43.50
2022-10-12T00:46:35.969Z,43.46
2022-10-12T00:47:07.360Z,42.95
2022-10-12T00:47:39.061Z,43.22
2022-10-12T00:48:10.647Z,43.47
2022-10-12T00:48:42.059Z,43.36
2022-10-12T00:49:13.444Z,43.22
2022-10-12T00:49:44.825Z,42.89
2022-10-12T00:50:16.231Z,43.65
2022-10-12T00:50:47.635Z,43.19
2022-10-12T00:51:19.019Z,43.21
2022-10-12T00:51:50.548Z,43.20
2022-10-12T00:52:21.932Z,43.50
2022-10-12T00:52:53.311Z,43.23
2022-10-12T00:53:24.694Z,43.30
2022-10-12T00:53:56.100Z,43.54
2022-10-12T00:54:27.483Z,43.18
2022-10-12T00:54:58.887Z,43.23
2022-10-12T00:55:30.276Z,43.15
2022-10-12T00:56:01.677Z,43.39
2022-10-12T00:56:33.083Z,43.29
2022-10-12T00:57:04.611Z,43.24
2022-10-12T00:57:36.155Z,43.45
2022-10-12T00:58:07.748Z,43.14
2022-10-12T00:58:39.158Z,43.36
2022-10-12T00:59:10.564Z,43.37
2022-10-12T00:59:41.950Z,43.35
2022-10-12T01:00:13.337Z,43.62
2022-10-12T01:00:44.817Z,43.19
2022-10-12T01:01:16.340Z,43.00
2022-10-12T01:01:47.760Z,43.08
2022-10-12T01:02:19.275Z,43.18
2022-10-12T01:02:50.688Z,43.49
2022-10-12T01:03:22.072Z,43.24
2022-10-12T01:03:53.460Z,43.20
2022-10-12T01:04:24.845Z,43.52
2022-10-12T01:04:56.246Z,43.29
2022-10-12T01:05:27.660Z,43.02
2022-10-12T01:05:59.047Z,43.35
2022-10-12T01:06:30.439Z,43.40
2022-10-12T01:07:01.845Z,42.85
2022-10-12T01:07:33.320Z,43.06
2022-10-12T01:08:04.781Z,43.58
2022-10-12T01:08:36.172Z,43.44
2022-10-12T01:09:07.556Z,42.96
2022-10-12T01:09:38.947Z,43.32
2022-10-12T01:10:11.808Z,43.63
2022-10-12T01:10:43.195Z,43.18
2022-10-12T01:11:14.607Z,42.88
2022-10-12T01:11:45.999Z,43.19
2022-10-12T01:12:17.395Z,43.19
2022-10-12T01:12:48.939Z,43.54
2022-10-12T01:13:20.324Z,43.49
2022-10-12T01:13:51.723Z,43.46
2022-10-12T01:14:23.117Z,43.45
2022-10-12T01:14:54.527Z,43.27
2022-10-12T01:15:25.921Z,43.55
2022-10-12T01:15:57.318Z,42.96
2022-10-12T01:16:28.700Z,43.14
2022-10-12T01:17:00.090Z,43.22
2022-10-12T01:17:31.501Z,43.30
2022-10-12T01:18:02.998Z,43.05
2022-10-12T01:18:34.404Z,42.96
2022-10-12T01:19:05.810Z,43.21
2022-10-12T01:19:37.218Z,42.91
2022-10-12T01:20:08.600Z,43.12
2022-10-12T01:20:39.983Z,43.05
2022-10-12T01:21:11.383Z,43.20
2022-10-12T01:21:42.786Z,43.30
2022-10-12T01:22:14.182Z,43.49
2022-10-12T01:22:45.945Z,43.23
2022-10-12T01:23:17.336Z,43.44
2022-10-12T01:23:48.721Z,42.93
2022-10-12T01:24:20.127Z,43.15
2022-10-12T01:24:51.538Z,43.13
2022-10-12T01:25:22.941Z,42.84
2022-10-12T01:25:54.331Z,43.54
2022-10-12T01:26:25.840Z,42.94
2022-10-12T01:26:57.232Z,43.09
2022-10-12T01:27:28.612Z,43.58
2022-10-12T01:28:00.044Z,43.45
2022-10-12T01:28:31.497Z,43.55
2022-10-12T01:29:02.922Z,43.58
2022-10-12T01:29:34.322Z,43.02
2022-10-12T01:30:05.720Z,43.65
2022-10-12T01:30:37.101Z,43.24
2022-10-12T01:31:08.511Z,43.19
2022-10-12T01:31:39.912Z,43.18
2022-10-12T01:32:11.304Z,43.47
2022-10-12T01:32:42.700Z,43.54
2022-10-12T01:33:14.234Z,43.44
2022-10-12T01:33:45.616Z,43.21
2022-10-12T01:34:17.001Z,43.49
2022-10-12T01:34:48.383Z,43.31
2022-10-12T01:35:19.781Z,43.34
2022-10-12T01:35:51.181Z,43.57
2022-10-12T01:36:22.571Z,42.89
2022-10-12T01:36:53.957Z,43.17
2022-10-12T01:37:25.364Z,43.38
2022-10-12T01:37:56.754Z,43.32
2022-10-12T01:38:28.197Z,43.28
2022-10-12T01:38:59.632Z,43.04
2022-10-12T01:39:31.036Z,42.95
2022-10-12T01:40:02.655Z,43.78
2022-10-12T01:40:34.040Z,43.56
2022-10-12T01:41:05.440Z,43.52
2022-10-12T01:41:36.828Z,43.02
2022-10-12T01:42:08.231Z,43.03
2022-10-12T01:42:39.617Z,43.23
2022-10-12T01:43:11.007Z,43.28
2022-10-12T01:43:42.455Z,43.13
2022-10-12T01:44:13.917Z,42.97
2022-10-12T01:44:45.332Z,43.22
2022-10-12T01:45:16.739Z,43.53
2022-10-12T01:45:48.127Z,43.37
2022-10-12T01:46:19.507Z,42.93
2022-10-12T01:46:50.894Z,43.45
2022-10-12T01:47:22.289Z,43.24
2022-10-12T01:47:53.686Z,43.20
2022-10-12T01:48:25.079Z,42.97
2022-10-12T01:48:56.518Z,43.68
2022-10-12T01:49:27.900Z,43.04
2022-10-12T01:49:59.315Z,43.31
2022-10-12T01:50:30.769Z,43.60
2022-10-12T01:51:02.157Z,43.24
2022-10-12T01:51:33.544Z,43.53
2022-10-12T01:52:04.947Z,42.76
2022-10-12T01:52:36.350Z,43.21
2022-10-12T01:53:07.754Z,43.21
2022-10-12T01:53:39.155Z,43.33
2022-10-12T01:54:10.676Z,43.33
2022-10-12T01:54:42.060Z,43.25
2022-10-12T01:55:13.464Z,43.54
2022-10-12T01:55:44.872Z,43.17
2022-10-12T01:56:16.268Z,43.32
2022-10-12T01:56:47.679Z,43.50
2022-10-12T01:57:19.084Z,43.04
2022-10-12T01:57:50.487Z,43.21
2022-10-12T01:58:21.900Z,43.40
2022-10-12T01:58:53.287Z,43.36
2022-10-12T01:59:24.739Z,42.92
2022-10-12T01:59:56.128Z,43.47
2022-10-12T02:00:27.519Z,42.97
2022-10-12T02:00:59.000Z,43.48
2022-10-12T02:01:30.510Z,43.32
2022-10-12T02:02:01.981Z,43.25
2022-10-12T02:02:33.384Z,43.37
2022-10-12T02:03:04.781Z,43.68
2022-10-12T02:03:36.187Z,43.14
2022-10-12T02:04:07.586Z,43.38
2022-10-12T02:04:39.114Z,43.16
2022-10-12T02:05:10.518Z,42.87
2022-10-12T02:05:41.900Z,43.26
2022-10-12T02:06:13.293Z,43.15
2022-10-12T02:06:44.684Z,42.91
2022-10-12T02:07:16.092Z,43.13
2022-10-12T02:07:47.495Z,43.12
2022-10-12T02:08:18.879Z,43.00
2022-10-12T02:08:50.272Z,43.04
2022-10-12T02:09:21.655Z,43.32
2022-10-12T02:09:53.080Z,43.24
2022-10-12T02:10:24.478Z,43.31
2022-10-12T02:10:55.871Z,43.46
2022-10-12T02:11:27.276Z,43.48
2022-10-12T02:11:58.668Z,43.31
2022-10-12T02:12:30.071Z,43.41
2022-10-12T02:13:01.471Z,43.24
2022-10-12T02:13:32.879Z,43.45
2022-10-12T02:14:04.269Z,43.42
2022-10-12T02:14:35.673Z,43.32
2022-10-12T02:15:07.163Z,43.25
2022-10-12T02:15:38.558Z,43.31
2022-10-12T02:16:10.332Z,43.15
2022-10-12T02:16:41.719Z,43.29
2022-10-12T02:17:13.104Z,42.85
2022-10-12T02:17:44.520Z,43.15
2022-10-12T02:18:15.923Z,43.18
2022-10-12T02:18:47.330Z,43.30
2022-10-12T02:19:18.725Z,43.55
2022-10-12T02:19:50.108Z,43.42
2022-10-12T02:20:21.584Z,43.25
2022-10-12T02:20:52.971Z,43.25
2022-10-12T02:21:24.355Z,42.96
2022-10-12T02:21:55.759Z,42.95
2022-10-12T02:22:27.149Z,43.05
2022-10-12T02:22:58.533Z,43.38
2022-10-12T02:23:29.920Z,43.28
2022-10-12T02:24:01.318Z,42.97
2022-10-12T02:24:32.699Z,43.17
2022-10-12T02:25:04.208Z,43.35
2022-10-12T02:25:35.587Z,43.25
2022-10-12T02:26:06.997Z,43.31
2022-10-12T02:26:38.396Z,43.45
2022-10-12T02:27:09.816Z,43.13
2022-10-12T02:27:41.299Z,43.42
2022-10-12T02:28:12.728Z,43.51
2022-10-12T02:28:44.203Z,43.19
2022-10-12T02:29:15.617Z,43.44
2022-10-12T02:29:47.028Z,43.52
2022-10-12T02:30:21.206Z,43.29
2022-10-12T02:30:52.803Z,43.42
2022-10-12T02:31:24.213Z,43.17
2022-10-12T02:31:55.600Z,43.15
2022-10-12T02:32:26.987Z,42.98
2022-10-12T02:32:58.372Z,43.02
2022-10-12T02:33:29.784Z,43.26
2022-10-12T02:34:01.192Z,43.39
2022-10-12T02:34:32.581Z,43.36
2022-10-12T02:35:03.995Z,43.61
2022-10-12T02:35:35.425Z,43.42
2022-10-12T02:36:06.820Z,43.04
2022-10-12T02:36:38.212Z,43.05
2022-10-12T02:37:09.616Z,43.47
2022-10-12T02:37:41.137Z,43.25
2022-10-12T02:38:12.678Z,42.95
2022-10-12T02:38:44.065Z,43.54
2022-10-12T02:39:15.501Z,43.07
2022-10-12T02:39:46.898Z,43.24
2022-10-12T02:40:18.294Z,43.60
2022-10-12T02:40:49.776Z,43.29
2022-10-12T02:41:21.193Z,43.64
2022-10-12T02:41:52.580Z,43.57
2022-10-12T02:42:23.961Z,43.38
2022-10-12T02:43:11.638Z,43.50
2022-10-12T02:43:43.128Z,43.29
2022-10-12T02:44:14.586Z,43.52
2022-10-12T02:44:45.976Z,43.02
2022-10-12T02:45:17.464Z,43.33
2022-10-12T02:45:48.877Z,43.44
2022-10-12T02:46:20.264Z,43.37
2022-10-12T02:46:51.687Z,43.31
2022-10-12T02:47:23.091Z,43.56
2022-10-12T02:47:54.482Z,43.48
2022-10-12T02:48:25.874Z,43.18
2022-10-12T02:48:57.289Z,43.53
2022-10-12T02:49:28.677Z,43.55
2022-10-12T02:50:00.076Z,43.23
2022-10-12T02:50:31.472Z,43.17
2022-10-12T02:51:02.958Z,43.11
2022-10-12T02:51:34.350Z,43.63
2022-10-12T02:52:05.759Z,43.54
2022-10-12T02:52:37.174Z,43.12
2022-10-12T02:53:08.566Z,43.05
2022-10-12T02:53:39.947Z,43.25
2022-10-12T02:54:11.337Z,43.55
2022-10-12T02:54:42.725Z,43.36
2022-10-12T02:55:14.132Z,43.26
2022-10-12T02:55:45.535Z,43.75
2022-10-12T02:56:17.015Z,43.60
2022-10-12T02:56:48.401Z,43.23
2022-10-12T02:57:19.803Z,43.57
2022-10-12T02:57:51.209Z,43.18
2022-10-12T02:58:22.601Z,43.52
2022-10-12T02:58:53.992Z,43.17
2022-10-12T02:59:25.387Z,43.12
2022-10-12T02:59:56.800Z,43.87
2022-10-12T03:00:28.208Z,43.14
2022-10-12T03:00:59.653Z,43.64
2022-10-12T03:01:31.178Z,43.63
2022-10-12T03:02:02.665Z,43.45
2022-10-12T03:02:34.059Z,43.46
2022-10-12T03:03:05.463Z,43.22
2022-10-12T03:03:36.858Z,43.77
2022-10-12T03:04:08.252Z,43.64
2022-10-12T03:04:39.642Z,43.53
2022-10-12T03:05:11.034Z,43.67
2022-10-12T03:05:42.465Z,43.89
2022-10-12T03:06:13.894Z,43.68
2022-10-12T03:06:45.288Z,43.44
2022-10-12T03:07:16.691Z,42.99
2022-10-12T03:07:48.079Z,43.14
2022-10-12T03:08:19.466Z,43.44
2022-10-12T03:08:50.859Z,43.45
2022-10-12T03:09:22.247Z,43.36
2022-10-12T03:09:53.642Z,43.48
2022-10-12T03:10:25.033Z,43.33
2022-10-12T03:10:56.423Z,43.39
2022-10-12T03:11:27.845Z,43.58
2022-10-12T03:11:59.229Z,43.15
2022-10-12T03:12:30.617Z,43.22
2022-10-12T03:13:02.004Z,43.52
2022-10-12T03:13:33.419Z,43.31
2022-10-12T03:14:04.826Z,43.31
2022-10-12T03:14:36.212Z,43.38
2022-10-12T03:15:07.604Z,43.51
2022-10-12T03:15:38.987Z,43.61
2022-10-12T03:16:10.373Z,43.37
2022-10-12T03:16:41.796Z,43.35
2022-10-12T03:17:13.184Z,43.35
2022-10-12T03:17:44.581Z,43.48
2022-10-12T03:18:15.966Z,43.50
2022-10-12T03:18:47.358Z,43.63
2022-10-12T03:19:18.744Z,43.21
2022-10-12T03:19:50.135Z,43.77
2022-10-12T03:20:21.545Z,43.33
2022-10-12T03:20:52.931Z,43.22
2022-10-12T03:21:24.320Z,43.57
2022-10-12T03:21:55.875Z,43.47
2022-10-12T03:22:27.257Z,43.31
2022-10-12T03:22:58.654Z,43.53
2022-10-12T03:23:30.065Z,43.50
2022-10-12T03:24:01.472Z,43.58
2022-10-12T03:24:32.875Z,43.66
2022-10-12T03:25:04.255Z,42.95
2022-10-12T03:25:35.672Z,43.37
2022-10-12T03:26:07.091Z,43.55
2022-10-12T03:26:38.467Z,43.38
2022-10-12T03:27:09.924Z,43.50
2022-10-12T03:27:41.400Z,43.77
2022-10-12T03:28:12.832Z,43.26
2022-10-12T03:28:44.299Z,43.86
2022-10-12T03:29:15.732Z,43.24
2022-10-12T03:29:47.116Z,43.80
2022-10-12T03:30:18.523Z,43.68
2022-10-12T03:30:49.905Z,43.50
2022-10-12T03:31:21.292Z,43.34
2022-10-12T03:31:52.695Z,43.21
2022-10-12T03:32:24.206Z,43.49
2022-10-12T03:32:55.599Z,43.36
2022-10-12T03:33:26.979Z,43.82
2022-10-12T03:33:58.365Z,43.73
2022-10-12T03:34:29.786Z,44.00
2022-10-12T03:35:01.192Z,43.41
2022-10-12T03:35:32.580Z,43.24
2022-10-12T03:36:03.969Z,43.52
2022-10-12T03:36:35.366Z,43.43
2022-10-12T03:37:06.777Z,43.48
2022-10-12T03:37:38.442Z,43.33
2022-10-12T03:38:10.022Z,43.25
2022-10-12T03:38:41.412Z,43.42
2022-10-12T03:39:12.798Z,43.68
2022-10-12T03:39:44.203Z,43.49
2022-10-12T03:40:15.594Z,43.72
2022-10-12T03:40:46.980Z,43.80
2022-10-12T03:41:18.363Z,43.62
2022-10-12T03:41:49.752Z,43.51
2022-10-12T03:42:21.145Z,43.62
2022-10-12T03:42:52.724Z,43.57
2022-10-12T03:43:24.111Z,43.14
2022-10-12T03:43:55.496Z,44.07
2022-10-12T03:44:26.888Z,43.36
2022-10-12T03:44:58.284Z,43.82
2022-10-12T03:45:29.668Z,43.55
2022-10-12T03:46:01.069Z,43.54
2022-10-12T03:46:32.473Z,43.78
2022-10-12T03:47:03.865Z,43.56
2022-10-12T03:47:35.336Z,43.55
2022-10-12T03:48:06.978Z,43.37
2022-10-12T03:48:38.377Z,43.40
2022-10-12T03:49:09.785Z,43.35
2022-10-12T03:49:41.172Z,43.90
2022-10-12T03:50:12.576Z,43.79
2022-10-12T03:50:43.968Z,43.48
2022-10-12T03:51:15.369Z,43.31
2022-10-12T03:51:46.808Z,43.79
2022-10-12T03:52:18.191Z,43.56
2022-10-12T03:52:49.578Z,43.33
2022-10-12T03:53:21.039Z,43.62
2022-10-12T03:53:52.440Z,43.64
2022-10-12T03:54:23.828Z,43.54
2022-10-12T03:54:55.232Z,43.39
2022-10-12T03:55:26.616Z,43.58
2022-10-12T03:55:58.001Z,43.84
2022-10-12T03:56:29.386Z,43.59
2022-10-12T03:57:00.768Z,43.77
2022-10-12T03:57:32.157Z,43.65
2022-10-12T03:58:03.545Z,43.33
2022-10-12T03:58:35.115Z,43.59
2022-10-12T03:59:06.527Z,43.45
2022-10-12T03:59:37.914Z,43.70
2022-10-12T04:00:09.310Z,43.49
2022-10-12T04:00:40.719Z,43.56
2022-10-12T04:01:12.156Z,43.73
2022-10-12T04:01:43.661Z,43.42
2022-10-12T04:02:17.031Z,43.52
2022-10-12T04:02:48.769Z,43.23
2022-10-12T04:03:20.165Z,43.63
2022-10-12T04:03:51.611Z,43.67
2022-10-12T04:04:23.036Z,43.59
2022-10-12T04:04:54.434Z,43.57
2022-10-12T04:05:25.831Z,43.59
2022-10-12T04:05:57.231Z,43.71
2022-10-12T04:06:28.635Z,43.59
2022-10-12T04:07:05.078Z,43.81
2022-10-12T04:07:36.722Z,43.88
2022-10-12T04:08:08.273Z,43.68
2022-10-12T04:08:40.339Z,43.26
2022-10-12T04:09:11.921Z,43.54
2022-10-12T04:09:43.408Z,43.81
2022-10-12T04:10:14.791Z,43.75
2022-10-12T04:10:46.181Z,43.77
2022-10-12T04:11:17.562Z,43.75
2022-10-12T04:11:48.951Z,43.70
2022-10-12T04:12:20.366Z,43.83
2022-10-12T04:12:51.749Z,43.38
2022-10-12T04:13:23.131Z,43.71
2022-10-12T04:13:54.540Z,43.80
2022-10-12T04:14:25.984Z,43.43
2022-10-12T04:14:57.379Z,43.49
2022-10-12T04:15:28.775Z,43.71
2022-10-12T04:16:00.165Z,43.55
2022-10-12T04:16:31.597Z,43.76
2022-10-12T04:17:02.992Z,43.28
2022-10-12T04:17:34.383Z,43.65
2022-10-12T04:18:05.777Z,43.70
2022-10-12T04:18:37.168Z,43.84
2022-10-12T04:19:08.564Z,43.53
2022-10-12T04:19:40.036Z,43.73
2022-10-12T04:20:11.440Z,43.70
2022-10-12T04:20:42.846Z,43.77
2022-10-12T04:21:14.245Z,43.59
2022-10-12T04:21:45.655Z,44.01
2022-10-12T04:22:17.039Z,43.77
2022-10-12T04:22:48.431Z,43.91
2022-10-12T04:23:19.819Z,43.72
2022-10-12T04:23:51.205Z,43.92
2022-10-12T04:24:22.595Z,43.75
2022-10-12T04:24:54.105Z,43.72
2022-10-12T04:25:29.971Z,43.76
2022-10-12T04:26:01.923Z,43.75
2022-10-12T04:26:33.306Z,43.80
2022-10-12T04:27:04.695Z,43.77
2022-10-12T04:27:36.410Z,43.75
2022-10-12T04:28:07.955Z,43.86
2022-10-12T04:28:39.417Z,43.53
2022-10-12T04:29:10.873Z,43.77
2022-10-12T04:29:42.279Z,43.64
2022-10-12T04:30:13.798Z,43.53
2022-10-12T04:30:45.187Z,43.67
2022-10-12T04:31:16.595Z,43.72
2022-10-12T04:31:48.000Z,44.13
2022-10-12T04:32:19.388Z,44.18
2022-10-12T04:32:50.786Z,43.88
2022-10-12T04:33:22.243Z,44.01
2022-10-12T04:33:53.644Z,43.78
2022-10-12T04:34:25.033Z,43.87
2022-10-12T04:34:56.527Z,43.65
2022-10-12T04:35:27.927Z,43.57
2022-10-12T04:35:59.309Z,44.08
2022-10-12T04:36:30.722Z,43.71
2022-10-12T04:37:02.117Z,43.70
2022-10-12T04:37:33.527Z,43.56
2022-10-12T04:38:04.926Z,43.81
2022-10-12T04:38:36.321Z,44.03
2022-10-12T04:39:07.756Z,43.72
2022-10-12T04:39:39.158Z,43.86
2022-10-12T04:40:10.679Z,43.87
2022-10-12T04:40:42.088Z,44.30
2022-10-12T04:41:13.497Z,44.02
2022-10-12T04:41:44.909Z,43.64
2022-10-12T04:42:16.306Z,44.11
2022-10-12T04:42:47.697Z,44.02
2022-10-12T04:43:19.084Z,43.53
2022-10-12T04:43:50.473Z,43.62
2022-10-12T04:44:21.855Z,43.68
2022-10-12T04:44:53.305Z,43.77
2022-10-12T04:45:24.698Z,43.84
2022-10-12T04:45:56.093Z,43.83
2022-10-12T04:46:27.491Z,43.94
2022-10-12T04:46:58.891Z,43.83
2022-10-12T04:47:30.280Z,43.58
2022-10-12T04:48:02.066Z,43.98
2022-10-12T04:48:33.477Z,43.68
2022-10-12T04:49:04.869Z,43.91
2022-10-12T04:49:36.285Z,43.94
2022-10-12T04:50:07.783Z,43.86
2022-10-12T04:50:39.179Z,44.18
2022-10-12T04:51:10.570Z,43.90
2022-10-12T04:51:41.956Z,44.21
2022-10-12T04:52:13.346Z,43.56
2022-10-12T04:52:44.741Z,44.14
2022-10-12T04:53:16.142Z,43.73
2022-10-12T04:53:47.539Z,43.91
2022-10-12T04:54:18.930Z,43.99
2022-10-12T04:54:50.316Z,43.89
2022-10-12T04:55:21.842Z,44.23
2022-10-12T04:55:53.230Z,43.95
2022-10-12T04:56:24.726Z,43.89
2022-10-12T04:56:56.118Z,44.05
2022-10-12T04:57:27.516Z,44.06
2022-10-12T04:57:58.900Z,44.01
2022-10-12T04:58:30.314Z,43.63
2022-10-12T04:59:01.715Z,44.05
2022-10-12T04:59:33.161Z,44.24
2022-10-12T05:00:04.666Z,43.73
2022-10-12T05:00:36.103Z,43.98
2022-10-12T05:01:07.518Z,43.91
2022-10-12T05:01:39.011Z,43.93
2022-10-12T05:02:10.472Z,43.91
2022-10-12T05:02:41.858Z,43.69
2022-10-12T05:03:13.248Z,44.04
2022-10-12T05:03:44.642Z,43.69
2022-10-12T05:04:16.048Z,43.85
2022-10-12T05:04:47.437Z,43.69
2022-10-12T05:05:18.943Z,44.04
2022-10-12T05:05:50.324Z,44.17
2022-10-12T05:06:21.714Z,43.76
2022-10-12T05:06:53.096Z,43.96
2022-10-12T05:07:24.501Z,44.16
2022-10-12T05:07:55.904Z,43.91
2022-10-12T05:08:27.296Z,43.76
2022-10-12T05:08:58.684Z,43.89
2022-10-12T05:09:30.072Z,44.06
2022-10-12T05:10:01.573Z,43.99
2022-10-12T05:10:32.960Z,44.08
2022-10-12T05:11:04.376Z,43.89
2022-10-12T05:11:35.772Z,44.17
2022-10-12T05:12:07.180Z,43.90
2022-10-12T05:12:38.770Z,43.89
2022-10-12T05:13:10.372Z,44.41
2022-10-12T05:13:41.756Z,44.23
2022-10-12T05:14:13.146Z,44.10
2022-10-12T05:14:44.535Z,44.21
2022-10-12T05:15:16.057Z,43.92
2022-10-12T05:15:47.451Z,43.82
2022-10-12T05:16:18.841Z,44.08
2022-10-12T05:16:50.249Z,43.81
2022-10-12T05:17:21.631Z,44.13
2022-10-12T05:17:53.153Z,43.86
2022-10-12T05:18:24.539Z,44.26
2022-10-12T05:18:55.972Z,43.78
2022-10-12T05:19:27.366Z,43.92
2022-10-12T05:19:58.767Z,44.13
2022-10-12T05:20:30.276Z,44.42
2022-10-12T05:21:01.676Z,44.09
2022-10-12T05:21:33.072Z,44.38
2022-10-12T05:22:04.480Z,43.94
2022-10-12T05:22:35.872Z,44.13
2022-10-12T05:23:07.266Z,43.94
2022-10-12T05:23:38.674Z,43.94
2022-10-12T05:24:10.065Z,44.21
2022-10-12T05:24:41.453Z,44.02
2022-10-12T05:25:12.844Z,44.16
2022-10-12T05:25:44.344Z,44.25
2022-10-12T05:26:15.734Z,44.14
2022-10-12T05:26:47.131Z,44.16
2022-10-12T05:27:18.523Z,44.46
2022-10-12T05:27:49.929Z,44.00
2022-10-12T05:28:21.366Z,44.09
2022-10-12T05:28:52.849Z,44.34
2022-10-12T05:29:24.255Z,44.15
2022-10-12T05:29:55.657Z,44.26
2022-10-12T05:30:27.061Z,44.38
2022-10-12T05:30:58.508Z,43.95
2022-10-12T05:31:29.921Z,44.15
2022-10-12T05:32:01.402Z,44.27
2022-10-12T05:32:32.785Z,44.24
2022-10-12T05:33:04.197Z,44.31
2022-10-12T05:33:35.615Z,44.50
2022-10-12T05:34:06.999Z,44.22
2022-10-12T05:34:38.384Z,44.08
2022-10-12T05:35:09.795Z,44.02
2022-10-12T05:35:46.634Z,44.17
2022-10-12T05:36:19.143Z,44.17
2022-10-12T05:36:50.548Z,44.54
2022-10-12T05:37:21.943Z,44.28
2022-10-12T05:37:53.332Z,44.43
2022-10-12T05:38:24.717Z,44.09
2022-10-12T05:38:56.111Z,44.02
2022-10-12T05:39:27.501Z,44.07
2022-10-12T05:39:58.907Z,44.51
2022-10-12T05:40:30.289Z,44.00
2022-10-12T05:41:01.741Z,43.99
2022-10-12T05:41:33.192Z,44.10
2022-10-12T05:42:04.599Z,44.04
2022-10-12T05:42:36.312Z,44.49
2022-10-12T05:43:07.910Z,44.03
2022-10-12T05:43:39.292Z,44.43
2022-10-12T05:44:10.712Z,44.31
2022-10-12T05:44:42.097Z,44.44
2022-10-12T05:45:13.484Z,44.65
2022-10-12T05:45:44.872Z,44.49
2022-10-12T05:46:16.313Z,44.56
2022-10-12T05:46:47.793Z,44.41
2022-10-12T05:47:19.234Z,44.38
2022-10-12T05:47:50.662Z,44.27
2022-10-12T05:48:22.060Z,44.67
2022-10-12T05:48:53.464Z,44.08
2022-10-12T05:49:24.933Z,44.61
2022-10-12T05:49:56.324Z,44.40
2022-10-12T05:50:27.715Z,44.18
2022-10-12T05:50:59.105Z,44.60
2022-10-12T05:51:30.594Z,44.17
2022-10-12T05:52:01.993Z,44.28
2022-10-12T05:52:33.386Z,44.44
2022-10-12T05:53:04.799Z,44.36
2022-10-12T05:53:36.206Z,44.39
2022-10-12T05:54:07.588Z,44.30
2022-10-12T05:54:38.970Z,44.77
2022-10-12T05:55:10.372Z,44.14
2022-10-12T05:55:41.779Z,44.28
2022-10-12T05:56:13.168Z,44.61
2022-10-12T05:56:44.676Z,44.78
2022-10-12T05:57:16.061Z,44.77
2022-10-12T05:57:51.711Z,44.76
2022-10-12T05:58:24.028Z,44.88
2022-10-12T05:58:55.612Z,44.33
2022-10-12T05:59:27.188Z,44.65
2022-10-12T05:59:58.917Z,44.58
2022-10-12T06:00:31.095Z,44.63
2022-10-12T06:01:02.541Z,44.66
2022-10-12T06:01:34.402Z,44.54
2022-10-12T06:02:06.214Z,44.55
2022-10-12T06:02:38.000Z,44.77
2022-10-12T06:03:09.621Z,44.86
2022-10-12T06:03:41.016Z,44.90
2022-10-12T06:04:12.481Z,44.64
2022-10-12T06:04:43.890Z,44.75
2022-10-12T06:05:15.275Z,45.13
2022-10-12T06:05:46.668Z,44.62
2022-10-12T06:06:18.073Z,44.84
2022-10-12T06:06:49.456Z,45.13
2022-10-12T06:07:20.948Z,44.66
2022-10-12T06:07:52.384Z,45.10
2022-10-12T06:08:23.806Z,44.90
2022-10-12T06:08:55.196Z,45.30
2022-10-12T06:09:26.583Z,44.93
2022-10-12T06:09:57.984Z,45.16
2022-10-12T06:10:30.190Z,44.76
2022-10-12T06:11:01.634Z,44.85
2022-10-12T06:11:36.243Z,45.15
2022-10-12T06:12:08.125Z,45.21
2022-10-12T06:12:39.792Z,45.13
2022-10-12T06:13:11.557Z,45.25
2022-10-12T06:13:42.936Z,45.75
2022-10-12T06:14:14.324Z,45.51
2022-10-12T06:14:45.712Z,45.58
2022-10-12T06:15:17.117Z,45.28
2022-10-12T06:15:48.509Z,45.10
2022-10-12T06:16:19.904Z,45.09
2022-10-12T06:16:54.437Z,45.57
2022-10-12T06:17:26.097Z,45.44
2022-10-12T06:17:57.481Z,44.97
2022-10-12T06:18:29.017Z,44.95
2022-10-12T06:19:00.409Z,45.27
2022-10-12T06:19:31.796Z,44.54
2022-10-12T06:20:03.181Z,45.36
2022-10-12T06:20:34.582Z,44.92
2022-10-12T06:21:32.003Z,45.73
2022-10-12T06:21:57.417Z,44.80
2022-10-12T06:22:28.810Z,45.00
2022-10-12T06:23:00.198Z,44.71
2022-10-12T06:23:31.696Z,44.64
2022-10-12T06:24:03.105Z,44.75
2022-10-12T06:24:34.496Z,44.72
2022-10-12T06:25:05.886Z,44.62
2022-10-12T06:25:37.287Z,44.73
2022-10-12T06:26:08.704Z,45.07
2022-10-12T06:26:40.107Z,44.96
2022-10-12T06:27:11.503Z,45.07
2022-10-12T06:27:42.916Z,45.43
2022-10-12T06:28:14.454Z,44.84
2022-10-12T06:28:45.935Z,44.95
2022-10-12T06:29:17.388Z,45.11
2022-10-12T06:29:48.777Z,45.11
2022-10-12T06:30:20.181Z,45.20
2022-10-12T06:30:51.578Z,45.18
2022-10-12T06:31:22.982Z,44.90
2022-10-12T06:31:54.368Z,45.02
2022-10-12T06:32:25.820Z,44.82
2022-10-12T06:32:57.219Z,44.78
2022-10-12T06:33:28.707Z,45.12
2022-10-12T06:34:00.097Z,44.94
2022-10-12T06:34:31.490Z,45.21
2022-10-12T06:35:02.881Z,44.84
2022-10-12T06:35:34.264Z,44.95
2022-10-12T06:36:05.650Z,44.79
2022-10-12T06:36:37.041Z,44.84
2022-10-12T06:37:16.371Z,44.77
2022-10-12T06:37:59.837Z,45.03
2022-10-12T06:38:31.276Z,44.99
2022-10-12T06:39:02.684Z,44.75
2022-10-12T06:39:34.068Z,44.83
2022-10-12T06:40:05.595Z,44.89
2022-10-12T06:40:37.364Z,45.22
2022-10-12T06:41:08.956Z,45.34
2022-10-12T06:41:40.584Z,44.99
2022-10-12T06:42:12.032Z,44.71
2022-10-12T06:42:43.534Z,44.97
2022-10-12T06:43:15.054Z,45.17
2022-10-12T06:43:46.676Z,44.94
2022-10-12T06:44:18.107Z,44.63
2022-10-12T06:44:50.074Z,44.54
2022-10-12T06:45:21.460Z,44.65
2022-10-12T06:45:52.936Z,44.77
2022-10-12T06:46:24.345Z,44.86
2022-10-12T06:46:55.761Z,44.63
2022-10-12T06:47:27.189Z,44.85
2022-10-12T06:47:58.581Z,45.15
2022-10-12T06:48:30.043Z,44.72
2022-10-12T06:49:01.433Z,45.19
2022-10-12T06:49:32.850Z,44.56
2022-10-12T06:50:04.234Z,45.07
2022-10-12T06:50:35.621Z,45.18